Springfield, South Dakota
Current Conditions -  °F | °C
As of 2:55 AM on Friday 31 Oct 2014 (Local Time) from KYKN Reporting Station
Clear Clear  
Wind Chill: -8°   Ceiling: Unl
Heat Index: -3°   Visibility: 10mi
Dew Point: -7°   Wind: 9mph
Humidity: 74%   Direction: 340°NNW
Pressure: 30.55"   Gusts: NA
Location:  42.85°N, 97.9°W
Report Text: KYKN 310755Z AUTO 34008KT 10SM CLR M03/M07 A3055 RMK AO1
Loading
Personal Weather Stations






























Interactive Weather Map
Tropical Storm Tracking
New forecast layout! Learn more

10-Day Weather Forecast

Advertisements
Track Severe Weather on mobile